Página principal
METAR-TAF:

METAR-TAF

Aeroportos :

Bucara, Uzbequistão

latitude: 39-46-30N, longitude: 064-29-00E, altura: 229 m

Observação actual do tempo

O boletim foi feito há 48 minutos, às 13:00 UTC
Vento 8 kt de nor-noroeste
Temperatura 26°C
Humidade 30%
Pressão 1016 hPa
Visibilidade 10 km ou mais
sem nuvens abaixo de 1500 metros e sem cumulonimbus

METAR: UTSB 241300Z 33008KT CAVOK 26/07 Q1016 R01/CLRD70 NOSIG

Hora: 18:48 (13:48 UTC)

Previsão

O boletim foi feito há 2 horas e 48 minutos, às 11:00 UTC
Previsão válida de 24 às 12 UTC a 25 às 12 UTC
Vento 3 kt com direcção variável
Visibilidade: 7000 m
Temporariamente
de 24 às 12 UTC a 24 às 23 UTC
Vento 12 kt de norte

TAF: UTSB 241100Z 2412/2512 VRB03KT 7000 NSC TEMPO 2412/2423 36012KT

Observações e previsões do tempo de mais de 4000 aeroportos (mensagens METAR e TAF).

As estações disponíveis são os pontos amarelos e vermelhos sobre o mapa.

Mova o rato sobre o mapa para ver o nome da estação.

Depois clique no ponto para visualizar as observações e previsões meteorológicas.

Para alterar o mapa : clique nos botões verdes com uma cruz preta para aumentar o zoom; no botão verde com uma pitada de zoom; ou nas setas verdes para mapas adjacentes.


METAR-TAF: